createdAt,value
2019-04-07T00:01:58.676Z,17.07
2019-04-07T00:04:34.287Z,17.62
2019-04-07T00:07:04.110Z,17.45
2019-04-07T00:09:34.347Z,17.65
2019-04-07T00:12:04.713Z,18.17
2019-04-07T00:14:34.035Z,18.95
2019-04-07T00:17:03.670Z,17.98
2019-04-07T00:19:33.038Z,19.67
2019-04-07T00:22:02.627Z,18.35
2019-04-07T00:24:33.208Z,18.52
2019-04-07T00:27:03.636Z,19.55
2019-04-07T00:29:33.686Z,16.67
2019-04-07T00:32:03.548Z,17.48
2019-04-07T00:34:33.534Z,18.85
2019-04-07T00:37:03.084Z,17.62
2019-04-07T00:39:33.516Z,17.50
2019-04-07T00:42:03.858Z,19.17
2019-04-07T00:44:34.388Z,17.52
2019-04-07T00:47:04.455Z,18.15
2019-04-07T00:49:34.753Z,19.62
2019-04-07T00:52:07.070Z,18.52
2019-04-07T00:54:37.073Z,18.00
2019-04-07T00:57:06.795Z,18.82
2019-04-07T00:59:36.489Z,18.82
2019-04-07T01:02:06.909Z,18.35
2019-04-07T01:04:36.475Z,19.50
2019-04-07T01:07:05.923Z,18.07
2019-04-07T01:09:35.536Z,19.60
2019-04-07T01:12:05.048Z,19.35
2019-04-07T01:14:34.809Z,19.17
2019-04-07T01:17:04.901Z,19.90
2019-04-07T01:19:34.438Z,19.62
2019-04-07T01:22:04.597Z,20.65
2019-04-07T01:24:34.393Z,20.72
2019-04-07T01:27:03.981Z,21.07
2019-04-07T01:29:34.230Z,21.15
2019-04-07T01:32:04.023Z,20.55
2019-04-07T01:34:34.062Z,20.20
2019-04-07T01:37:04.455Z,19.23
2019-04-07T01:39:34.013Z,20.30
2019-04-07T01:42:07.998Z,20.10
2019-04-07T01:44:42.056Z,20.17
2019-04-07T01:47:20.057Z,21.73
2019-04-07T01:50:00.607Z,21.57
2019-04-07T01:52:31.713Z,22.02
2019-04-07T01:55:02.815Z,21.20
2019-04-07T01:57:37.479Z,19.90
2019-04-07T02:00:24.089Z,20.90
2019-04-07T02:02:55.520Z,21.35
2019-04-07T02:05:44.246Z,21.10
2019-04-07T02:08:32.080Z,24.82
2019-04-07T02:11:08.998Z,24.25
2019-04-07T02:13:58.477Z,23.07
2019-04-07T02:16:29.988Z,22.87
2019-04-07T02:19:17.269Z,22.20
2019-04-07T02:21:58.223Z,21.97
2019-04-07T02:24:44.308Z,22.67
2019-04-07T02:27:18.382Z,24.92
2019-04-07T02:29:58.892Z,25.75
2019-04-07T02:32:32.941Z,23.75
2019-04-07T02:35:07.497Z,23.70
2019-04-07T02:37:39.081Z,24.75
2019-04-07T02:40:16.463Z,24.12
2019-04-07T02:42:48.339Z,24.77
2019-04-07T02:45:20.093Z,24.35
2019-04-07T02:47:54.598Z,23.90
2019-04-07T02:50:32.369Z,22.98
2019-04-07T02:53:10.917Z,24.72
2019-04-07T02:55:42.575Z,23.77
2019-04-07T02:58:16.319Z,23.80
2019-04-07T03:00:57.649Z,24.52
2019-04-07T03:03:44.357Z,24.45
2019-04-07T03:06:32.555Z,24.72
2019-04-07T03:08:48.113Z,25.05
2019-04-07T03:11:35.810Z,24.18
2019-04-07T03:14:16.177Z,23.10
2019-04-07T03:17:06.542Z,24.00
2019-04-07T03:19:42.589Z,22.48
2019-04-07T03:22:30.965Z,23.27
2019-04-07T03:25:11.530Z,24.87
2019-04-07T03:28:00.499Z,24.18
2019-04-07T03:30:33.065Z,23.65
2019-04-07T03:33:22.828Z,24.20
2019-04-07T03:35:55.292Z,23.55
2019-04-07T03:38:34.162Z,24.07
2019-04-07T03:41:05.362Z,23.80
2019-04-07T03:43:36.566Z,25.52
2019-04-07T03:46:17.231Z,25.55
2019-04-07T03:48:48.566Z,24.90
2019-04-07T03:51:20.176Z,25.40
2019-04-07T03:53:54.500Z,24.72
2019-04-07T03:56:25.763Z,24.40
2019-04-07T03:59:00.307Z,24.30
2019-04-07T04:01:47.967Z,23.50
2019-04-07T04:04:34.832Z,23.40
2019-04-07T04:07:20.268Z,23.62
2019-04-07T04:09:53.744Z,23.32
2019-04-07T04:12:28.133Z,22.32
2019-04-07T04:15:04.895Z,23.07
2019-04-07T04:17:34.712Z,22.98
2019-04-07T04:20:08.388Z,24.27
2019-04-07T04:22:39.398Z,27.05
2019-04-07T04:25:10.536Z,33.63
2019-04-07T04:27:40.308Z,33.33
2019-04-07T04:30:10.826Z,32.85
2019-04-07T04:32:41.439Z,27.62
2019-04-07T04:35:11.316Z,28.02
2019-04-07T04:37:46.374Z,27.60
2019-04-07T04:40:13.999Z,25.65
2019-04-07T04:42:44.399Z,25.43
2019-04-07T04:45:14.174Z,23.32
2019-04-07T04:47:43.649Z,23.07
2019-04-07T04:50:13.367Z,24.37
2019-04-07T04:52:42.911Z,24.52
2019-04-07T04:55:13.308Z,24.00
2019-04-07T04:57:44.419Z,23.75
2019-04-07T05:00:15.722Z,23.75
2019-04-07T05:02:45.805Z,23.07
2019-04-07T05:05:15.663Z,25.37
2019-04-07T05:07:54.104Z,24.27
2019-04-07T05:10:17.078Z,25.12
2019-04-07T05:12:49.396Z,24.25
2019-04-07T05:15:21.149Z,24.55
2019-04-07T05:17:50.643Z,23.85
2019-04-07T05:20:20.593Z,24.37
2019-04-07T05:22:50.292Z,23.47
2019-04-07T05:25:20.582Z,23.70
2019-04-07T05:27:50.514Z,22.80
2019-04-07T05:30:20.566Z,23.95
2019-04-07T05:32:50.644Z,24.92
2019-04-07T05:35:20.813Z,23.77
2019-04-07T05:38:01.246Z,24.52
2019-04-07T05:40:22.216Z,25.32
2019-04-07T05:42:53.181Z,28.23
2019-04-07T05:45:23.798Z,26.27
2019-04-07T05:47:53.494Z,26.48
2019-04-07T05:50:26.886Z,28.42
2019-04-07T05:52:55.171Z,27.50
2019-04-07T05:55:25.031Z,27.27
2019-04-07T05:57:54.989Z,27.85
2019-04-07T06:00:25.156Z,27.73
2019-04-07T06:02:54.688Z,27.62
2019-04-07T06:05:24.465Z,28.52
2019-04-07T06:07:54.513Z,27.55
2019-04-07T06:10:27.647Z,27.50
2019-04-07T06:12:55.507Z,26.95
2019-04-07T06:15:25.799Z,29.05
2019-04-07T06:17:59.575Z,27.90
2019-04-07T06:20:27.125Z,28.00
2019-04-07T06:22:57.581Z,28.35
2019-04-07T06:25:32.801Z,26.80
2019-04-07T06:27:58.883Z,28.42
2019-04-07T06:30:31.216Z,27.25
2019-04-07T06:33:01.602Z,27.42
2019-04-07T06:35:32.392Z,26.95
2019-04-07T06:38:06.660Z,27.02
2019-04-07T06:40:33.847Z,27.27
2019-04-07T06:43:05.251Z,26.90
2019-04-07T06:45:39.985Z,27.45
2019-04-07T06:48:11.431Z,26.70
2019-04-07T06:51:01.733Z,25.88
2019-04-07T06:53:52.367Z,25.77
2019-04-07T06:56:24.246Z,26.52
2019-04-07T06:59:01.994Z,25.37
2019-04-07T07:01:50.203Z,24.77
2019-04-07T07:04:43.599Z,24.67
2019-04-07T07:07:28.348Z,24.40
2019-04-07T07:10:00.679Z,24.25
2019-04-07T07:12:38.702Z,24.82
2019-04-07T07:15:08.907Z,24.55
2019-04-07T07:17:41.143Z,26.05
2019-04-07T07:20:12.964Z,24.77
2019-04-07T07:22:46.740Z,26.30
2019-04-07T07:25:15.796Z,25.97
2019-04-07T07:27:46.140Z,27.30
2019-04-07T07:30:18.336Z,26.75
2019-04-07T07:32:47.388Z,26.12
2019-04-07T07:35:18.019Z,28.23
2019-04-07T07:37:48.322Z,27.85
2019-04-07T07:40:18.514Z,25.43
2019-04-07T07:42:50.689Z,27.02
2019-04-07T07:45:21.756Z,27.58
2019-04-07T07:47:53.956Z,27.67
2019-04-07T07:50:23.296Z,27.22
2019-04-07T07:52:56.080Z,28.27
2019-04-07T07:55:26.459Z,26.15
2019-04-07T07:57:58.375Z,27.20
2019-04-07T08:00:27.783Z,27.65
2019-04-07T08:02:58.239Z,26.37
2019-04-07T08:05:32.979Z,27.45
2019-04-07T08:07:59.385Z,28.15
2019-04-07T08:10:29.234Z,28.55
2019-04-07T08:12:59.530Z,26.50
2019-04-07T08:15:32.265Z,24.57
2019-04-07T08:18:04.645Z,23.38
2019-04-07T08:20:32.583Z,26.35
2019-04-07T08:23:02.621Z,23.77
2019-04-07T08:25:32.607Z,22.90
2019-04-07T08:28:04.486Z,24.43
2019-04-07T08:30:33.696Z,24.65
2019-04-07T08:33:03.516Z,23.52
2019-04-07T08:35:37.498Z,23.40
2019-04-07T08:38:05.614Z,23.65
2019-04-07T08:40:36.904Z,24.35
2019-04-07T08:43:07.208Z,26.30
2019-04-07T08:45:37.087Z,25.55
2019-04-07T08:48:07.384Z,25.60
2019-04-07T08:50:37.462Z,24.85
2019-04-07T08:53:10.494Z,25.60
2019-04-07T08:55:38.238Z,24.55
2019-04-07T08:58:08.108Z,25.17
2019-04-07T09:00:39.322Z,24.25
2019-04-07T09:03:13.190Z,24.18
2019-04-07T09:05:41.038Z,24.40
2019-04-07T09:08:11.726Z,25.12
2019-04-07T09:10:49.198Z,25.30
2019-04-07T09:13:18.535Z,25.40
2019-04-07T09:16:06.553Z,23.70
2019-04-07T09:19:01.106Z,25.35
2019-04-07T09:21:42.838Z,26.05
2019-04-07T09:24:33.449Z,25.48
2019-04-07T09:27:16.988Z,24.77
2019-04-07T09:29:52.454Z,25.12
2019-04-07T09:32:39.466Z,24.72
2019-04-07T09:35:16.835Z,26.20
2019-04-07T09:37:54.872Z,25.20
2019-04-07T09:40:32.670Z,24.92
2019-04-07T09:43:20.375Z,24.70
2019-04-07T09:45:57.402Z,24.07
2019-04-07T09:48:28.873Z,24.57
2019-04-07T09:51:06.964Z,24.87
2019-04-07T09:53:52.301Z,24.82
2019-04-07T09:56:30.778Z,24.43
2019-04-07T09:58:59.162Z,23.27
2019-04-07T10:01:47.400Z,25.35
2019-04-07T10:04:25.529Z,26.20
2019-04-07T10:07:16.487Z,24.57
2019-04-07T10:10:04.542Z,23.12
2019-04-07T10:12:42.514Z,23.12
2019-04-07T10:15:25.753Z,23.67
2019-04-07T10:17:59.791Z,22.22
2019-04-07T10:20:31.626Z,22.90
2019-04-07T10:23:05.865Z,22.82
2019-04-07T10:25:42.376Z,23.03
2019-04-07T10:28:23.349Z,23.87
2019-04-07T10:31:11.276Z,22.85
2019-04-07T10:33:42.754Z,22.20
2019-04-07T10:36:13.788Z,22.73
2019-04-07T10:38:45.123Z,21.60
2019-04-07T10:41:26.144Z,22.20
2019-04-07T10:44:01.572Z,20.68
2019-04-07T10:46:50.385Z,19.23
2019-04-07T10:49:30.881Z,21.25
2019-04-07T10:52:19.684Z,20.68
2019-04-07T10:54:50.934Z,20.75
2019-04-07T10:57:25.375Z,19.87
2019-04-07T10:59:59.068Z,20.60
2019-04-07T11:02:36.136Z,19.27
2019-04-07T11:05:14.517Z,19.48
2019-04-07T11:07:45.802Z,20.97
2019-04-07T11:10:28.794Z,18.57
2019-04-07T11:13:01.910Z,19.60
2019-04-07T11:15:33.025Z,18.50
2019-04-07T11:18:13.656Z,18.62
2019-04-07T11:20:47.330Z,18.17
2019-04-07T11:23:24.149Z,20.10
2019-04-07T11:25:58.435Z,19.93
2019-04-07T11:28:35.193Z,20.57
2019-04-07T11:31:06.181Z,19.87
2019-04-07T11:33:37.992Z,18.57
2019-04-07T11:36:25.827Z,20.23
2019-04-07T11:39:15.346Z,19.17
2019-04-07T11:42:04.786Z,19.57
2019-04-07T11:44:35.655Z,19.97
2019-04-07T11:47:19.713Z,19.93
2019-04-07T11:49:53.971Z,18.00
2019-04-07T11:52:25.130Z,17.10
2019-04-07T11:55:12.547Z,18.17
2019-04-07T11:58:13.683Z,18.10
2019-04-07T12:00:48.836Z,18.70
2019-04-07T12:03:32.487Z,18.77
2019-04-07T12:06:14.276Z,19.10
2019-04-07T12:08:45.652Z,19.17
2019-04-07T12:11:26.101Z,18.37
2019-04-07T12:14:07.364Z,18.83
2019-04-07T12:16:44.852Z,18.70
2019-04-07T12:19:23.876Z,17.77
2019-04-07T12:22:00.184Z,17.20
2019-04-07T12:24:34.750Z,17.10
2019-04-07T12:27:15.207Z,17.60
2019-04-07T12:29:47.176Z,16.77
2019-04-07T12:32:24.880Z,18.07
2019-04-07T12:35:05.307Z,17.83
2019-04-07T12:37:39.244Z,17.33
2019-04-07T12:40:24.481Z,17.60
2019-04-07T12:43:07.461Z,17.63
2019-04-07T12:45:38.759Z,17.87
2019-04-07T12:48:15.675Z,17.50
2019-04-07T12:50:52.331Z,16.80
2019-04-07T12:53:42.233Z,17.37
2019-04-07T12:56:19.168Z,17.63
2019-04-07T12:58:55.883Z,16.10
2019-04-07T13:01:47.013Z,15.57
2019-04-07T13:04:31.927Z,15.83
2019-04-07T13:07:08.938Z,17.17
2019-04-07T13:09:40.691Z,16.83
2019-04-07T13:12:11.928Z,16.00
2019-04-07T13:14:42.806Z,16.83
2019-04-07T13:17:33.513Z,16.33
2019-04-07T13:20:20.924Z,15.87
2019-04-07T13:23:01.487Z,16.47
2019-04-07T13:25:39.640Z,17.13
2019-04-07T13:28:11.075Z,16.53
2019-04-07T13:30:54.849Z,16.57
2019-04-07T13:33:42.678Z,16.70
2019-04-07T13:36:30.306Z,16.20
2019-04-07T13:39:04.465Z,15.17
2019-04-07T13:41:55.225Z,16.93
2019-04-07T13:44:38.667Z,16.40
2019-04-07T13:47:26.728Z,16.60
2019-04-07T13:50:00.105Z,15.93
2019-04-07T13:52:40.856Z,15.00
2019-04-07T13:55:30.571Z,15.43
2019-04-07T13:58:04.512Z,14.90
2019-04-07T14:00:35.782Z,15.57
2019-04-07T14:03:06.965Z,15.40
2019-04-07T14:05:48.009Z,15.83
2019-04-07T14:08:19.857Z,16.63
2019-04-07T14:10:58.187Z,14.43
2019-04-07T14:13:40.700Z,15.20
2019-04-07T14:16:23.278Z,16.03
2019-04-07T14:19:06.699Z,15.37
2019-04-07T14:21:47.295Z,15.00
2019-04-07T14:24:25.145Z,15.13
2019-04-07T14:27:08.644Z,15.90
2019-04-07T14:29:52.426Z,14.53
2019-04-07T14:32:27.287Z,14.73
2019-04-07T14:35:02.218Z,14.23
2019-04-07T14:37:46.217Z,15.03
2019-04-07T14:40:25.906Z,13.80
2019-04-07T14:42:55.961Z,14.07
2019-04-07T14:45:35.818Z,14.83
2019-04-07T14:48:09.831Z,14.87
2019-04-07T14:50:41.629Z,14.43
2019-04-07T14:53:13.213Z,15.70
2019-04-07T14:56:02.150Z,14.43
2019-04-07T14:58:52.237Z,14.63
2019-04-07T15:01:39.984Z,15.50
2019-04-07T15:04:10.898Z,15.50
2019-04-07T15:06:41.568Z,15.67
2019-04-07T15:09:22.439Z,13.53
2019-04-07T15:11:53.446Z,14.57
2019-04-07T15:14:23.355Z,14.17
2019-04-07T15:16:53.513Z,14.70
2019-04-07T15:19:24.498Z,14.50
2019-04-07T15:21:55.384Z,14.83
2019-04-07T15:24:26.001Z,13.80
2019-04-07T15:26:57.737Z,13.60
2019-04-07T15:29:28.826Z,16.10
2019-04-07T15:31:59.775Z,13.70
2019-04-07T15:34:29.874Z,13.57
2019-04-07T15:37:00.750Z,12.93
2019-04-07T15:39:31.201Z,12.97
2019-04-07T15:42:00.953Z,12.20
2019-04-07T15:44:31.494Z,12.40
2019-04-07T15:47:01.825Z,13.47
2019-04-07T15:49:32.173Z,12.33
2019-04-07T15:52:04.629Z,12.97
2019-04-07T15:54:34.983Z,13.60
2019-04-07T15:57:05.714Z,14.07
2019-04-07T15:59:35.862Z,12.57
2019-04-07T16:02:08.485Z,12.87
2019-04-07T16:04:38.315Z,12.37
2019-04-07T16:07:09.107Z,14.07
2019-04-07T16:09:49.407Z,12.73
2019-04-07T16:12:10.838Z,11.70
2019-04-07T16:14:44.272Z,12.50
2019-04-07T16:17:12.582Z,12.57
2019-04-07T16:19:45.416Z,12.23
2019-04-07T16:22:17.215Z,12.00
2019-04-07T16:24:47.485Z,12.73
2019-04-07T16:27:17.883Z,11.80
2019-04-07T16:29:47.939Z,13.07
2019-04-07T16:32:19.601Z,12.20
2019-04-07T16:34:49.794Z,12.63
2019-04-07T16:37:20.356Z,12.80
2019-04-07T16:39:51.158Z,11.90
2019-04-07T16:42:21.870Z,12.20
2019-04-07T16:44:52.646Z,12.57
2019-04-07T16:47:25.891Z,12.93
2019-04-07T16:49:54.728Z,12.00
2019-04-07T16:52:25.520Z,12.73
2019-04-07T16:54:56.038Z,12.63
2019-04-07T16:57:28.845Z,11.97
2019-04-07T16:59:58.349Z,12.67
2019-04-07T17:02:29.572Z,12.97
2019-04-07T17:04:59.389Z,12.67
2019-04-07T17:07:29.726Z,12.83
2019-04-07T17:10:02.291Z,12.80
2019-04-07T17:12:32.203Z,12.67
2019-04-07T17:15:04.632Z,13.53
2019-04-07T17:17:34.359Z,13.90
2019-04-07T17:20:05.778Z,14.13
2019-04-07T17:22:36.831Z,12.77
2019-04-07T17:25:09.921Z,11.90
2019-04-07T17:27:42.243Z,13.70
2019-04-07T17:30:15.313Z,13.27
2019-04-07T17:32:45.807Z,14.90
2019-04-07T17:35:17.559Z,13.40
2019-04-07T17:37:47.834Z,13.37
2019-04-07T17:40:22.598Z,14.50
2019-04-07T17:42:53.985Z,14.03
2019-04-07T17:45:35.470Z,14.80
2019-04-07T17:48:10.337Z,14.73
2019-04-07T17:51:01.079Z,15.57
2019-04-07T17:53:37.280Z,15.43
2019-04-07T17:56:15.724Z,16.83
2019-04-07T17:58:51.242Z,17.07
2019-04-07T18:01:35.761Z,16.07
2019-04-07T18:04:13.914Z,16.27
2019-04-07T18:06:42.697Z,15.77
2019-04-07T18:09:24.439Z,17.90
2019-04-07T18:12:03.064Z,16.77
2019-04-07T18:14:48.193Z,17.83
2019-04-07T18:17:44.474Z,17.90
2019-04-07T18:20:19.458Z,17.12
2019-04-07T18:22:54.585Z,20.63
2019-04-07T18:25:32.129Z,18.48
2019-04-07T18:28:12.066Z,19.30
2019-04-07T18:31:02.936Z,20.35
2019-04-07T18:33:31.463Z,17.80
2019-04-07T18:36:14.682Z,19.95
2019-04-07T18:38:49.615Z,21.20
2019-04-07T18:41:21.699Z,20.77
2019-04-07T18:44:04.685Z,21.60
2019-04-07T18:46:31.644Z,25.23
2019-04-07T18:49:19.141Z,24.20
2019-04-07T18:51:57.997Z,21.87
2019-04-07T18:54:31.151Z,21.48
2019-04-07T18:57:21.623Z,21.15
2019-04-07T19:00:01.769Z,21.27
2019-04-07T19:02:37.902Z,22.13
2019-04-07T19:05:15.941Z,23.30
2019-04-07T19:08:04.294Z,23.30
2019-04-07T19:10:38.946Z,21.97
2019-04-07T19:13:15.930Z,22.52
2019-04-07T19:15:53.523Z,21.68
2019-04-07T19:18:24.908Z,21.25
2019-04-07T19:20:55.961Z,22.23
2019-04-07T19:23:43.677Z,22.07
2019-04-07T19:26:18.114Z,21.87
2019-04-07T19:29:04.326Z,22.13
2019-04-07T19:31:42.169Z,22.55
2019-04-07T19:34:13.084Z,23.02
2019-04-07T19:37:03.893Z,23.07
2019-04-07T19:39:38.340Z,22.75
2019-04-07T19:42:14.355Z,23.62
2019-04-07T19:44:53.227Z,22.15
2019-04-07T19:47:40.194Z,21.87
2019-04-07T19:50:28.632Z,21.30
2019-04-07T19:53:18.670Z,22.55
2019-04-07T19:55:55.542Z,22.75
2019-04-07T19:58:32.618Z,24.10
2019-04-07T20:01:08.399Z,24.18
2019-04-07T20:03:51.738Z,24.72
2019-04-07T20:06:32.771Z,25.40
2019-04-07T20:09:12.958Z,25.23
2019-04-07T20:11:48.028Z,25.50
2019-04-07T20:14:26.223Z,24.43
2019-04-07T20:17:19.717Z,23.62
2019-04-07T20:19:55.575Z,23.95
2019-04-07T20:22:44.014Z,23.12
2019-04-07T20:25:32.050Z,23.22
2019-04-07T20:28:09.248Z,25.27
2019-04-07T20:30:59.668Z,29.60
2019-04-07T20:33:47.350Z,27.60
2019-04-07T20:36:24.125Z,27.58
2019-04-07T20:38:58.449Z,28.00
2019-04-07T20:41:36.599Z,26.45
2019-04-07T20:44:08.131Z,30.70
2019-04-07T20:46:45.892Z,29.40
2019-04-07T20:49:20.252Z,27.05
2019-04-07T20:51:54.668Z,28.02
2019-04-07T20:54:42.230Z,31.12
2019-04-07T20:57:30.907Z,29.23
2019-04-07T21:00:18.961Z,32.65
2019-04-07T21:03:09.111Z,29.40
2019-04-07T21:05:30.829Z,29.67
2019-04-07T21:08:14.819Z,30.90
2019-04-07T21:10:49.638Z,30.25
2019-04-07T21:13:21.767Z,29.32
2019-04-07T21:16:03.581Z,29.50
2019-04-07T21:18:53.204Z,28.85
2019-04-07T21:21:37.467Z,29.65
2019-04-07T21:24:19.833Z,28.45
2019-04-07T21:27:07.768Z,29.27
2019-04-07T21:29:45.329Z,31.93
2019-04-07T21:32:20.413Z,33.28
2019-04-07T21:34:51.614Z,32.65
2019-04-07T21:37:25.452Z,32.98
2019-04-07T21:39:56.843Z,35.55
2019-04-07T21:42:33.995Z,37.65
2019-04-07T21:45:31.599Z,36.00
2019-04-07T21:48:05.305Z,37.60
2019-04-07T21:50:40.025Z,36.48
2019-04-07T21:53:28.047Z,39.13
2019-04-07T21:56:05.987Z,38.13
2019-04-07T21:58:47.440Z,41.23
2019-04-07T22:01:25.078Z,38.50
2019-04-07T22:03:56.658Z,41.08
2019-04-07T22:06:46.597Z,39.98
2019-04-07T22:09:20.677Z,38.45
2019-04-07T22:11:51.428Z,38.13
2019-04-07T22:14:21.141Z,39.00
2019-04-07T22:16:51.274Z,38.30
2019-04-07T22:19:24.367Z,43.35
2019-04-07T22:21:56.550Z,44.40
2019-04-07T22:24:26.206Z,46.25
2019-04-07T22:26:57.153Z,45.38
2019-04-07T22:29:26.971Z,45.80
2019-04-07T22:31:58.163Z,45.25
2019-04-07T22:34:31.485Z,45.43
2019-04-07T22:37:00.052Z,45.78
2019-04-07T22:39:35.959Z,43.33
2019-04-07T22:42:06.371Z,41.63
2019-04-07T22:44:35.856Z,39.80
2019-04-07T22:47:05.577Z,41.68
2019-04-07T22:49:35.623Z,41.88
2019-04-07T22:52:05.580Z,41.15
2019-04-07T22:54:35.198Z,43.30
2019-04-07T22:57:06.142Z,43.38
2019-04-07T22:59:36.387Z,44.40
2019-04-07T23:02:07.345Z,45.10
2019-04-07T23:04:36.910Z,46.20
2019-04-07T23:07:06.526Z,47.33
2019-04-07T23:09:36.995Z,48.00
2019-04-07T23:12:07.077Z,49.53
2019-04-07T23:14:36.478Z,47.50
2019-04-07T23:17:06.427Z,46.23
2019-04-07T23:19:36.058Z,45.08
2019-04-07T23:22:05.558Z,48.83
2019-04-07T23:24:35.121Z,47.70
2019-04-07T23:27:04.577Z,47.15
2019-04-07T23:29:34.521Z,48.40
2019-04-07T23:32:04.426Z,48.92
2019-04-07T23:34:35.181Z,49.18
2019-04-07T23:37:06.001Z,48.28
2019-04-07T23:39:36.115Z,49.67
2019-04-07T23:42:05.733Z,46.85
2019-04-07T23:44:35.314Z,49.35
2019-04-07T23:47:05.007Z,50.75
2019-04-07T23:49:34.411Z,50.33
2019-04-07T23:52:04.766Z,52.53
2019-04-07T23:54:35.193Z,55.12
2019-04-07T23:57:07.121Z,54.42
2019-04-07T23:59:36.719Z,50.28
